Time;durP1;ratioP1;P1;durP2;ratioP2;P2;SDS_P1;SDS_P2;PMS_P1;PMS_P2;Temp;Humidity;BMP_temperature;BMP_pressure;BME280_temperature;BME280_humidity;BME280_pressure;Samples;Min_cycle;Max_cycle;Signal;HPM_P1;HPM_P2
2023/01/08 00:04:29;;;;;;;52.30;31.70;;;;;;;3.07;89.01;99821.48;209146;1292;140495;-65
2023/01/08 00:09:32;;;;;;;50.30;31.50;;;;;;;2.93;88.71;99813.63;209083;1290;140895;-66
2023/01/08 00:14:35;;;;;;;46.60;28.20;;;;;;;2.82;88.93;99804.04;208104;1291;141016;-65
2023/01/08 00:19:40;;;;;;;52.20;30.90;;;;;;;2.74;88.88;99797.21;210206;1294;140303;-66
2023/01/08 00:24:43;;;;;;;44.20;29.50;;;;;;;2.69;89.09;99782.50;208015;1284;141068;-66
2023/01/08 00:29:47;;;;;;;39.80;26.40;;;;;;;2.64;88.96;99778.64;208232;1291;140179;-67
2023/01/08 00:34:53;;;;;;;38.20;24.30;;;;;;;2.57;88.96;99772.33;210590;1298;139753;-66
2023/01/08 00:39:56;;;;;;;57.60;31.60;;;;;;;2.54;89.26;99763.25;209557;1292;140971;-68
2023/01/08 00:44:59;;;;;;;46.50;29.50;;;;;;;2.58;89.20;99760.25;208952;1291;140598;-67
2023/01/08 00:50:03;;;;;;;48.90;28.80;;;;;;;2.63;89.28;99746.14;207781;1286;140235;-67
2023/01/08 00:55:06;;;;;;;45.40;26.10;;;;;;;2.64;89.26;99746.69;209599;1292;139940;-66
2023/01/08 01:00:12;;;;;;;45.10;26.30;;;;;;;2.62;89.43;99746.65;208608;1286;139439;-65
2023/01/08 01:05:16;;;;;;;39.30;22.70;;;;;;;2.55;89.07;99737.98;209429;1294;140590;-66
2023/01/08 01:10:18;;;;;;;46.00;25.50;;;;;;;2.48;89.16;99736.58;208729;1291;140741;-66
2023/01/08 01:15:21;;;;;;;37.90;20.80;;;;;;;2.46;89.23;99734.69;209568;1291;139869;-65
2023/01/08 01:20:23;;;;;;;46.10;24.40;;;;;;;2.43;89.37;99730.14;207777;1294;140631;-64
2023/01/08 01:25:26;;;;;;;33.70;19.90;;;;;;;2.40;89.24;99722.97;209657;1292;152380;-66
2023/01/08 01:30:29;;;;;;;42.80;24.40;;;;;;;2.34;88.98;99718.92;208991;1292;139822;-65
2023/01/08 01:35:33;;;;;;;32.70;17.40;;;;;;;2.31;89.06;99720.63;207954;1292;139734;-64
2023/01/08 01:40:41;;;;;;;39.80;21.10;;;;;;;2.23;88.98;99712.00;208075;1286;141327;-66
2023/01/08 01:45:43;;;;;;;33.90;19.50;;;;;;;2.09;89.25;99716.39;208394;1299;140765;-67
2023/01/08 01:50:50;;;;;;;39.10;21.90;;;;;;;1.96;89.20;99717.36;208135;1286;139938;-66
2023/01/08 01:55:55;;;;;;;29.80;17.40;;;;;;;1.88;89.66;99720.35;208890;1287;140712;-64
2023/01/08 02:01:03;;;;;;;32.10;17.80;;;;;;;1.86;90.03;99721.33;208223;1295;141042;-65
2023/01/08 02:06:10;;;;;;;39.40;19.80;;;;;;;1.87;90.29;99721.73;209638;1278;220942;-65
2023/01/08 02:11:21;;;;;;;35.00;20.20;;;;;;;1.88;90.22;99716.51;207902;1300;141344;-66
2023/01/08 02:16:39;;;;;;;32.60;16.90;;;;;;;1.90;90.61;99711.71;209700;1293;140562;-66
2023/01/08 02:21:53;;;;;;;25.40;14.10;;;;;;;1.89;90.59;99706.54;209619;1285;140510;-63
2023/01/08 02:26:59;;;;;;;32.90;16.30;;;;;;;1.89;90.86;99700.27;209826;1295;140705;-67
2023/01/08 02:32:02;;;;;;;31.80;16.30;;;;;;;1.91;90.98;99695.65;209380;1291;140322;-67
2023/01/08 02:37:07;;;;;;;27.80;15.70;;;;;;;1.93;90.65;99693.82;210119;1291;139981;-67
2023/01/08 02:42:34;;;;;;;31.10;15.20;;;;;;;1.96;90.81;99696.81;210309;1293;140946;-67
2023/01/08 02:47:44;;;;;;;33.20;17.00;;;;;;;2.02;90.97;99702.05;210554;1292;140618;-66
2023/01/08 02:53:07;;;;;;;31.80;16.40;;;;;;;2.06;90.97;99702.71;209287;1286;139724;-65
2023/01/08 02:58:11;;;;;;;30.10;17.40;;;;;;;2.10;91.16;99707.79;209452;1294;151629;-66
2023/01/08 03:03:21;;;;;;;35.20;17.30;;;;;;;2.14;90.97;99711.52;209051;1285;141893;-66
2023/01/08 03:08:25;;;;;;;31.40;16.60;;;;;;;2.19;91.32;99706.82;208998;1298;142047;-66
2023/01/08 03:13:31;;;;;;;38.20;18.10;;;;;;;2.22;91.18;99709.00;208256;1285;140436;-64
2023/01/08 03:18:38;;;;;;;;;;;;;;;2.25;91.18;99695.69;208960;1298;140941;-67
2023/01/08 03:23:43;;;;;;;34.80;17.90;;;;;;;2.23;91.43;99688.70;208861;1286;125755;-67
2023/01/08 03:28:49;;;;;;;30.80;15.90;;;;;;;2.27;91.53;99694.67;208468;1295;139735;-67
2023/01/08 03:34:01;;;;;;;37.10;19.10;;;;;;;2.30;91.62;99691.36;209334;1295;140828;-67
2023/01/08 03:39:32;;;;;;;32.90;16.70;;;;;;;2.32;91.51;99681.98;208725;1294;139701;-66
2023/01/08 03:44:35;;;;;;;38.00;18.10;;;;;;;2.34;91.39;99668.45;208088;1292;153521;-66
2023/01/08 03:49:42;;;;;;;32.10;19.10;;;;;;;2.33;91.68;99656.44;208688;1286;140359;-67
2023/01/08 03:54:46;;;;;;;37.50;19.40;;;;;;;2.31;91.57;99654.42;208494;1292;141482;-64
2023/01/08 03:59:49;;;;;;;31.40;16.40;;;;;;;2.27;91.45;99652.98;209106;1292;141578;-65
2023/01/08 04:04:52;;;;;;;36.40;19.00;;;;;;;2.26;91.57;99651.52;208326;1285;141257;-66
2023/01/08 04:09:54;;;;;;;30.00;16.20;;;;;;;2.24;91.70;99649.42;209205;1278;140478;-63
2023/01/08 04:14:58;;;;;;;30.40;17.00;;;;;;;2.28;91.82;99657.38;209155;1286;140573;-65
2023/01/08 04:20:01;;;;;;;40.40;18.60;;;;;;;2.34;91.59;99663.33;208969;1298;140985;-67
2023/01/08 04:25:04;;;;;;;37.90;20.10;;;;;;;2.34;91.31;99650.73;209856;1292;141779;-63
2023/01/08 04:30:08;;;;;;;37.60;20.10;;;;;;;2.30;91.68;99646.27;209163;1279;140493;-63
2023/01/08 04:35:11;;;;;;;37.00;20.30;;;;;;;2.29;91.64;99630.84;210415;1294;142098;-66
2023/01/08 04:40:13;;;;;;;26.20;15.30;;;;;;;2.26;91.40;99625.42;209723;1295;140536;-66
2023/01/08 04:45:16;;;;;;;41.10;20.70;;;;;;;2.27;91.51;99624.70;209848;1293;141840;-65
2023/01/08 04:50:18;;;;;;;39.00;17.80;;;;;;;2.28;91.19;99617.36;210259;1287;152183;-68
2023/01/08 04:55:20;;;;;;;30.80;17.40;;;;;;;2.26;91.21;99621.66;209240;1295;141782;-66
2023/01/08 05:00:23;;;;;;;29.80;17.40;;;;;;;2.23;91.29;99622.42;208943;1291;140148;-67
2023/01/08 05:05:25;;;;;;;26.50;15.80;;;;;;;2.23;91.22;99620.61;208453;1292;233575;-62
2023/01/08 05:10:27;;;;;;;36.40;18.60;;;;;;;2.24;91.53;99613.14;209526;1294;140226;-67
2023/01/08 05:15:30;;;;;;;37.30;19.20;;;;;;;2.24;91.29;99614.75;208243;1285;140561;-65
2023/01/08 05:20:32;;;;;;;37.60;19.60;;;;;;;2.24;91.24;99622.31;208919;1292;139901;-63
2023/01/08 05:25:35;;;;;;;38.30;20.70;;;;;;;2.24;91.64;99625.79;209414;1295;140082;-66
2023/01/08 05:30:37;;;;;;;33.40;18.70;;;;;;;2.20;91.33;99611.91;208284;1278;141534;-68
2023/01/08 05:35:39;;;;;;;35.40;18.30;;;;;;;2.14;91.11;99596.17;208279;1291;141273;-64
2023/01/08 05:40:41;;;;;;;27.20;16.30;;;;;;;2.08;91.45;99592.69;207968;1286;141063;-64
2023/01/08 05:45:43;;;;;;;34.80;18.00;;;;;;;2.10;91.78;99580.36;208510;1278;140770;-66
2023/01/08 05:50:49;;;;;;;41.30;20.90;;;;;;;2.09;91.21;99568.91;207790;1292;142008;-65
2023/01/08 05:56:01;;;;;;;43.90;22.30;;;;;;;2.07;91.44;99561.56;207810;1286;141053;-66
2023/01/08 06:01:09;;;;;;;31.00;18.40;;;;;;;2.06;91.84;99555.21;208776;1286;221617;-67
2023/01/08 06:06:15;;;;;;;36.80;20.50;;;;;;;2.08;91.98;99553.64;207870;1278;141538;-65
2023/01/08 06:11:20;;;;;;;34.90;18.80;;;;;;;2.11;92.16;99557.65;208875;1292;141803;-64
2023/01/08 06:16:23;;;;;;;32.80;18.20;;;;;;;2.16;92.01;99552.80;208617;1288;140637;-62
2023/01/08 06:21:26;;;;;;;32.20;20.90;;;;;;;2.18;91.59;99544.23;210043;1298;140680;-64
2023/01/08 06:26:29;;;;;;;37.70;21.70;;;;;;;2.18;91.80;99531.89;210257;1292;139781;-63
2023/01/08 06:31:33;;;;;;;34.60;20.30;;;;;;;2.17;91.74;99527.02;210854;1295;139935;-66
2023/01/08 06:36:37;;;;;;;42.50;21.80;;;;;;;2.20;91.78;99538.80;210475;1301;141129;-66
2023/01/08 06:41:41;;;;;;;29.20;17.30;;;;;;;2.27;91.73;99547.02;210540;1291;140862;-65
2023/01/08 06:46:44;;;;;;;33.60;19.30;;;;;;;2.32;91.89;99544.16;210469;1294;142783;-66
2023/01/08 06:51:48;;;;;;;33.50;21.60;;;;;;;2.33;91.39;99533.13;209598;1294;140946;-64
2023/01/08 06:56:51;;;;;;;25.80;15.90;;;;;;;2.34;91.62;99546.24;208479;1292;139994;-64
2023/01/08 07:01:56;;;;;;;32.60;17.20;;;;;;;2.39;91.60;99532.50;207845;1286;141264;-65
2023/01/08 07:07:00;;;;;;;34.90;18.90;;;;;;;2.40;91.79;99528.05;208144;1292;141962;-65
2023/01/08 07:12:03;;;;;;;29.80;18.40;;;;;;;2.42;91.89;99535.65;209519;1284;140377;-64
2023/01/08 07:17:08;;;;;;;31.50;18.20;;;;;;;2.48;92.17;99539.54;207946;1292;140820;-62
2023/01/08 07:22:11;;;;;;;39.20;20.40;;;;;;;2.51;92.01;99539.57;208212;1277;140656;-66
2023/01/08 07:27:14;;;;;;;36.20;21.90;;;;;;;2.55;91.93;99545.36;209404;1284;139758;-63
2023/01/08 07:32:17;;;;;;;41.00;21.90;;;;;;;2.60;91.91;99548.05;209356;1292;140390;-66
2023/01/08 07:37:20;;;;;;;34.30;19.80;;;;;;;2.67;92.00;99555.16;207975;1286;141981;-65
2023/01/08 07:42:24;;;;;;;30.80;18.10;;;;;;;2.73;92.11;99564.21;208067;1277;163252;-64
2023/01/08 07:47:28;;;;;;;40.30;23.20;;;;;;;2.77;92.20;99563.41;208040;1284;141009;-62
2023/01/08 07:52:30;;;;;;;34.40;20.60;;;;;;;2.80;92.00;99553.20;208698;1285;141220;-63
2023/01/08 07:57:32;;;;;;;31.20;18.10;;;;;;;2.82;92.09;99539.73;207757;1284;141727;-63
2023/01/08 08:02:34;;;;;;;34.20;20.30;;;;;;;2.85;91.99;99537.91;207843;1292;140605;-66
2023/01/08 08:07:37;;;;;;;35.00;19.90;;;;;;;2.91;92.04;99539.17;209238;1292;142483;-66
2023/01/08 08:12:43;;;;;;;38.50;21.30;;;;;;;2.99;92.03;99530.75;207942;1278;143473;-66
2023/01/08 08:17:47;;;;;;;35.20;24.10;;;;;;;3.04;92.04;99529.17;207675;1286;141415;-62
2023/01/08 08:22:49;;;;;;;34.30;20.40;;;;;;;3.12;92.09;99526.56;207733;1278;143049;-64
2023/01/08 08:27:51;;;;;;;31.60;19.90;;;;;;;3.17;92.10;99518.41;209702;1284;141802;-66
2023/01/08 08:32:56;;;;;;;36.90;23.00;;;;;;;3.24;91.95;99521.71;210512;1289;140555;-62
2023/01/08 08:37:59;;;;;;;35.70;22.10;;;;;;;3.35;92.06;99525.04;210141;1289;274005;-68
2023/01/08 08:43:03;;;;;;;32.80;20.00;;;;;;;3.44;91.80;99520.78;210188;1285;141154;-67
2023/01/08 08:48:07;;;;;;;30.40;20.10;;;;;;;3.54;91.75;99512.38;210508;1295;141339;-67
2023/01/08 08:53:09;;;;;;;35.30;21.20;;;;;;;3.67;91.67;99515.84;209523;1284;139931;-67
2023/01/08 08:58:13;;;;;;;30.60;20.50;;;;;;;3.67;91.39;99507.73;208780;1286;139742;-65
2023/01/08 09:03:16;;;;;;;29.50;18.80;;;;;;;3.69;91.37;99506.36;209685;1278;140488;-67
2023/01/08 09:08:19;;;;;;;33.90;22.20;;;;;;;3.75;91.23;99500.23;208801;1285;142738;-67
2023/01/08 09:13:23;;;;;;;34.80;20.50;;;;;;;3.77;91.23;99490.50;208506;1279;141557;-67
2023/01/08 09:18:27;;;;;;;29.60;17.40;;;;;;;3.83;91.31;99483.83;207672;1284;140185;-65
2023/01/08 09:23:30;;;;;;;35.30;20.10;;;;;;;3.88;91.36;99472.21;209276;1286;231223;-67
2023/01/08 09:28:34;;;;;;;30.70;18.40;;;;;;;3.88;91.40;99469.21;208521;1289;141148;-68
2023/01/08 09:33:38;;;;;;;36.30;20.50;;;;;;;3.98;91.34;99466.11;207931;1285;140334;-65
2023/01/08 09:38:41;;;;;;;41.10;21.70;;;;;;;4.08;91.10;99456.23;207748;1284;140402;-66
2023/01/08 09:43:50;;;;;;;35.50;21.40;;;;;;;4.13;91.11;99448.17;207862;1278;140525;-62
2023/01/08 09:48:58;;;;;;;39.80;21.80;;;;;;;4.26;91.13;99443.69;208237;1284;141028;-64
2023/01/08 09:54:14;;;;;;;41.90;21.90;;;;;;;4.46;91.07;99432.10;208995;1292;141139;-63
2023/01/08 09:59:17;;;;;;;44.70;22.10;;;;;;;4.58;90.82;99424.83;208149;1292;140388;-67
2023/01/08 10:04:22;;;;;;;40.00;23.30;;;;;;;4.55;90.42;99415.19;208883;1285;141267;-65
2023/01/08 10:09:31;;;;;;;38.00;21.20;;;;;;;4.49;90.26;99412.33;208974;1288;140760;-66
2023/01/08 10:14:38;;;;;;;33.40;21.00;;;;;;;4.41;90.12;99404.60;207654;1278;141213;-63
2023/01/08 10:19:44;;;;;;;35.10;19.10;;;;;;;4.33;90.25;99397.98;207961;1285;236565;-62
2023/01/08 10:24:48;;;;;;;32.20;18.10;;;;;;;4.35;90.28;99383.73;210276;1295;140638;-63
2023/01/08 10:29:51;;;;;;;34.70;19.50;;;;;;;4.42;90.31;99379.44;210527;1286;140789;-64
2023/01/08 10:34:57;;;;;;;34.50;20.60;;;;;;;4.55;90.16;99371.27;210506;1295;140120;-65
2023/01/08 10:40:18;;;;;;;31.10;18.10;;;;;;;4.61;90.03;99356.42;210157;1293;140982;-68
2023/01/08 10:45:27;;;;;;;33.10;19.80;;;;;;;4.78;90.09;99365.34;210456;1295;140319;-67
2023/01/08 10:50:33;;;;;;;35.00;20.30;;;;;;;4.85;89.77;99364.01;209897;1295;140045;-68
2023/01/08 10:55:38;;;;;;;33.10;20.50;;;;;;;4.79;89.42;99375.14;209768;1285;141872;-65
2023/01/08 11:00:44;;;;;;;36.10;20.10;;;;;;;4.79;89.35;99367.63;208961;1285;140954;-66
2023/01/08 11:05:48;;;;;;;35.20;18.40;;;;;;;4.82;89.17;99361.29;208925;1281;140025;-66
2023/01/08 11:11:01;;;;;;;33.10;20.70;;;;;;;4.91;89.26;99360.42;207492;1284;140770;-66
2023/01/08 11:16:09;;;;;;;33.80;21.10;;;;;;;4.97;89.54;99367.73;207655;1285;140161;-66
2023/01/08 11:21:23;;;;;;;34.90;20.10;;;;;;;5.12;89.44;99368.07;209697;1292;140461;-67
2023/01/08 11:26:28;;;;;;;33.00;19.20;;;;;;;5.26;89.66;99350.93;208647;1292;140534;-66
2023/01/08 11:31:46;;;;;;;33.90;22.30;;;;;;;5.29;88.96;99350.39;208894;1290;140339;-66
2023/01/08 11:37:18;;;;;;;28.90;18.50;;;;;;;5.34;89.06;99348.33;208913;1285;139981;-65
2023/01/08 11:42:54;;;;;;;28.80;18.00;;;;;;;5.33;88.46;99340.94;208934;1285;140319;-67
2023/01/08 11:48:37;;;;;;;24.10;17.20;;;;;;;5.35;88.35;99330.20;207515;1279;140696;-69
2023/01/08 11:53:42;;;;;;;23.90;16.30;;;;;;;5.39;88.30;99329.73;208272;1284;245854;-67
2023/01/08 11:58:55;;;;;;;28.40;17.10;;;;;;;5.43;88.34;99327.16;208386;1285;140226;-68
2023/01/08 12:04:17;;;;;;;33.00;18.10;;;;;;;5.46;88.22;99331.61;209361;1284;140326;-67
2023/01/08 12:09:47;;;;;;;28.70;17.80;;;;;;;5.48;88.52;99331.58;209916;1289;140384;-67
2023/01/08 12:15:25;;;;;;;25.10;18.20;;;;;;;5.44;87.76;99321.05;209066;1294;140629;-67
2023/01/08 12:21:03;;;;;;;29.70;18.10;;;;;;;5.35;87.61;99314.10;208831;1291;140252;-67
2023/01/08 12:26:27;;;;;;;23.70;15.20;;;;;;;5.29;87.57;99312.30;208144;1292;140540;-68
2023/01/08 12:31:56;;;;;;;29.20;18.30;;;;;;;5.23;87.57;99312.23;209447;1294;139968;-67
2023/01/08 12:37:28;;;;;;;30.00;18.20;;;;;;;5.17;87.57;99314.73;210659;1285;141370;-67
2023/01/08 12:42:37;;;;;;;23.40;14.30;;;;;;;5.17;87.59;99307.13;210562;1287;222913;-67
2023/01/08 12:47:41;;;;;;;27.70;18.70;;;;;;;5.22;87.30;99301.73;210168;1292;140797;-66
2023/01/08 12:53:07;;;;;;;29.00;17.50;;;;;;;5.30;87.54;99293.83;208997;1292;141182;-66
2023/01/08 12:58:17;;;;;;;26.80;16.70;;;;;;;5.30;86.95;99277.97;209744;1293;139815;-66
2023/01/08 13:03:24;;;;;;;26.30;16.10;;;;;;;5.30;86.75;99268.79;208357;1292;142594;-67
2023/01/08 13:08:33;;;;;;;23.60;15.20;;;;;;;5.16;86.96;99265.74;208684;1292;141648;-66
2023/01/08 13:13:43;;;;;;;23.10;17.50;;;;;;;5.12;86.96;99266.13;209077;1292;140942;-66
2023/01/08 13:19:00;;;;;;;24.90;16.40;;;;;;;5.06;86.70;99266.08;207933;1295;140573;-67
2023/01/08 13:24:33;;;;;;;27.60;17.50;;;;;;;4.95;86.92;99265.90;208997;1284;141103;-66
2023/01/08 13:29:42;;;;;;;27.70;19.10;;;;;;;4.84;87.05;99258.08;208299;1292;140909;-67
2023/01/08 13:34:44;;;;;;;24.30;14.60;;;;;;;4.82;87.21;99248.05;209007;1289;140001;-67
2023/01/08 13:39:51;;;;;;;31.70;18.90;;;;;;;4.80;87.50;99249.48;208787;1286;139776;-66
2023/01/08 13:45:05;;;;;;;27.60;16.90;;;;;;;4.75;87.32;99249.83;208050;1294;140514;-67
2023/01/08 13:50:23;;;;;;;37.90;20.30;;;;;;;4.70;87.78;99250.65;208061;1294;141999;-66
2023/01/08 13:55:39;;;;;;;35.50;23.90;;;;;;;4.63;87.64;99252.05;208439;1285;140210;-66
2023/01/08 14:00:49;;;;;;;29.70;17.90;;;;;;;4.59;88.02;99252.55;208938;1285;140658;-67
2023/01/08 14:06:19;;;;;;;37.00;21.20;;;;;;;4.56;87.68;99258.82;209257;1278;139753;-67
2023/01/08 14:11:42;;;;;;;41.60;25.10;;;;;;;4.40;87.65;99248.10;208077;1291;141779;-66
2023/01/08 14:16:49;;;;;;;33.10;19.60;;;;;;;4.29;87.72;99243.61;210643;1285;140688;-67
2023/01/08 14:21:57;;;;;;;39.50;23.00;;;;;;;4.26;87.76;99249.68;210543;1295;140809;-67
2023/01/08 14:27:01;;;;;;;29.60;19.80;;;;;;;4.20;87.70;99254.02;210669;1301;144400;-67
2023/01/08 14:32:15;;;;;;;30.60;17.80;;;;;;;4.12;87.47;99263.36;210598;1291;140619;-67
2023/01/08 14:37:20;;;;;;;36.90;21.90;;;;;;;4.05;87.60;99252.85;210631;1287;140599;-67
2023/01/08 14:42:41;;;;;;;29.20;19.10;;;;;;;3.97;87.70;99235.30;210733;1291;140631;-67
2023/01/08 14:47:49;;;;;;;32.90;19.30;;;;;;;3.89;87.78;99236.04;208425;1279;141344;-66
2023/01/08 14:53:09;;;;;;;30.90;18.90;;;;;;;3.84;87.98;99236.84;207663;1286;140620;-66
2023/01/08 14:58:21;;;;;;;31.50;19.80;;;;;;;3.77;88.05;99215.46;209622;1290;140734;-67
2023/01/08 15:03:31;;;;;;;30.60;19.30;;;;;;;3.66;88.08;99221.92;208117;1286;140611;-67
2023/01/08 15:08:41;;;;;;;30.20;20.20;;;;;;;3.62;88.32;99209.48;208620;1292;139994;-67
2023/01/08 15:13:48;;;;;;;34.00;22.20;;;;;;;3.62;88.47;99211.52;208955;1292;140420;-66
2023/01/08 15:19:06;;;;;;;34.40;19.80;;;;;;;3.63;88.47;99216.66;207935;1291;141244;-67
2023/01/08 15:24:20;;;;;;;;;;;;;;;3.63;88.73;99211.32;208023;1291;141074;-65
2023/01/08 15:29:32;;;;;;;31.50;20.80;;;;;;;3.64;88.85;99209.44;208799;1292;126162;-66
2023/01/08 15:34:38;;;;;;;28.80;18.10;;;;;;;3.65;88.98;99206.98;208907;1285;139971;-67
2023/01/08 15:39:43;;;;;;;33.30;20.30;;;;;;;3.61;88.66;99203.36;207978;1286;139748;-65
2023/01/08 15:44:47;;;;;;;32.10;17.70;;;;;;;3.54;88.85;99200.80;209027;1286;139879;-67
2023/01/08 15:49:53;;;;;;;32.60;20.50;;;;;;;3.52;88.92;99193.50;208636;1286;140083;-67
2023/01/08 15:55:00;;;;;;;27.90;19.90;;;;;;;3.48;88.99;99188.59;208402;1286;140980;-66
2023/01/08 16:00:03;;;;;;;35.80;22.80;;;;;;;3.48;89.03;99194.18;209486;1291;140297;-66
2023/01/08 16:05:08;;;;;;;30.90;18.90;;;;;;;3.52;89.08;99192.90;209048;1286;140041;-67
2023/01/08 16:10:12;;;;;;;29.10;17.40;;;;;;;3.55;89.10;99191.27;209787;1291;141082;-68
2023/01/08 16:15:17;;;;;;;31.00;20.10;;;;;;;3.55;89.17;99194.15;210155;1292;141447;-67
2023/01/08 16:20:22;;;;;;;26.50;16.50;;;;;;;3.56;88.93;99192.41;210784;1293;140257;-67
2023/01/08 16:25:25;;;;;;;33.40;18.70;;;;;;;3.59;88.82;99181.66;210758;1293;140256;-68
2023/01/08 16:30:29;;;;;;;26.70;17.60;;;;;;;3.58;88.78;99178.91;210442;1295;140301;-67
2023/01/08 16:35:34;;;;;;;27.30;17.40;;;;;;;3.57;88.83;99176.84;210488;1293;141746;-65
2023/01/08 16:40:40;;;;;;;30.80;16.10;;;;;;;3.60;88.70;99169.26;210161;1285;141470;-67
2023/01/08 16:45:48;;;;;;;27.50;17.50;;;;;;;3.58;88.55;99167.52;209071;1292;140005;-66
2023/01/08 16:50:54;;;;;;;22.30;13.50;;;;;;;3.52;88.72;99164.76;208997;1295;140588;-67
2023/01/08 16:56:00;;;;;;;22.30;13.70;;;;;;;3.50;88.81;99164.43;209177;1284;142152;-67
2023/01/08 17:01:11;;;;;;;33.80;17.00;;;;;;;3.51;88.84;99161.59;209861;1284;141025;-67
2023/01/08 17:06:19;;;;;;;23.60;14.70;;;;;;;3.45;88.63;99151.37;208713;1286;140193;-66
2023/01/08 17:11:26;;;;;;;30.60;18.40;;;;;;;3.38;88.63;99154.08;208316;1291;141734;-65
2023/01/08 17:16:29;;;;;;;36.30;19.00;;;;;;;3.34;88.50;99146.73;209066;1291;139656;-66
2023/01/08 17:21:32;;;;;;;35.00;19.10;;;;;;;3.28;88.58;99136.59;208803;1292;140635;-66
2023/01/08 17:26:38;;;;;;;51.00;23.20;;;;;;;3.25;88.76;99130.84;207872;1292;140994;-66
2023/01/08 17:31:43;;;;;;;30.90;18.00;;;;;;;3.23;88.81;99128.31;208753;1291;141715;-66
2023/01/08 17:36:47;;;;;;;25.40;17.60;;;;;;;3.20;88.87;99122.92;208761;1291;141458;-66
2023/01/08 17:47:13;;;;;;;30.60;18.30;;;;;;;3.13;88.91;99106.71;209351;1292;140191;-67
2023/01/08 17:52:15;;;;;;;29.60;18.10;;;;;;;3.12;89.03;99102.08;208889;1290;140331;-67
2023/01/08 17:57:20;;;;;;;33.00;19.60;;;;;;;3.14;89.28;99103.42;209157;1288;140174;-67
2023/01/08 18:02:26;;;;;;;34.10;20.70;;;;;;;3.17;89.40;99106.71;208417;1291;140893;-66
2023/01/08 18:07:33;;;;;;;32.10;18.00;;;;;;;3.21;89.46;99103.11;209611;1291;141765;-67
2023/01/08 18:12:37;;;;;;;;;;;;;;;3.25;89.49;99102.35;208545;1295;140598;-67
2023/01/08 18:17:41;;;;;;;33.60;19.00;;;;;;;3.26;89.54;99107.33;210935;1299;127711;-67
2023/01/08 18:22:45;;;;;;;32.30;18.40;;;;;;;3.29;89.56;99116.41;210615;1288;141209;-67
2023/01/08 18:27:51;;;;;;;34.10;18.70;;;;;;;3.33;89.76;99123.63;210563;1298;140383;-66
2023/01/08 18:32:55;;;;;;;40.00;22.80;;;;;;;3.39;89.47;99121.94;210538;1295;141322;-67
2023/01/08 18:37:59;;;;;;;37.70;22.30;;;;;;;3.41;89.54;99122.27;210675;1287;141931;-67
2023/01/08 18:43:03;;;;;;;38.50;22.60;;;;;;;3.42;89.53;99123.16;210503;1295;141332;-67
2023/01/08 18:48:10;;;;;;;35.10;19.30;;;;;;;3.46;89.27;99123.96;208824;1286;141062;-67
2023/01/08 18:53:15;;;;;;;37.80;21.10;;;;;;;3.48;89.26;99119.31;210317;1302;140311;-67
2023/01/08 18:58:18;;;;;;;30.40;22.80;;;;;;;3.46;89.33;99112.78;209082;1296;140918;-67
2023/01/08 19:03:21;;;;;;;38.90;21.30;;;;;;;3.42;89.04;99113.31;210048;1291;140542;-67
2023/01/08 19:08:25;;;;;;;34.60;19.00;;;;;;;3.44;89.31;99108.52;208661;1292;140084;-66
2023/01/08 19:13:30;;;;;;;32.40;21.60;;;;;;;3.44;89.33;99097.25;209373;1299;139768;-67
2023/01/08 19:18:34;;;;;;;34.40;21.40;;;;;;;3.37;89.38;99090.90;209066;1291;140159;-67
2023/01/08 19:23:38;;;;;;;45.30;25.20;;;;;;;3.33;89.38;99080.17;208112;1291;139856;-67
2023/01/08 19:28:49;;;;;;;;;;;;;;;3.29;89.48;99078.36;208589;1295;140761;-66
2023/01/08 19:33:57;;;;;;;40.60;24.70;;;;;;;3.23;89.55;99068.31;208780;1292;127132;-66
2023/01/08 19:39:06;;;;;;;36.90;21.80;;;;;;;3.25;89.71;99066.36;208048;1291;140907;-66
2023/01/08 19:44:10;;;;;;;45.50;23.90;;;;;;;3.29;90.07;99062.31;207631;1293;245398;-66
2023/01/08 19:49:15;;;;;;;37.50;22.90;;;;;;;3.32;89.95;99059.30;208588;1291;141680;-65
2023/01/08 19:54:24;;;;;;;47.80;22.40;;;;;;;3.36;90.27;99054.55;208594;1279;139960;-65
2023/01/08 19:59:30;;;;;;;45.60;25.00;;;;;;;3.39;90.24;99045.30;208500;1291;142107;-67
2023/01/08 20:04:41;;;;;;;40.40;22.00;;;;;;;3.46;90.37;99041.56;208985;1295;140621;-67
2023/01/08 20:09:47;;;;;;;35.00;20.70;;;;;;;3.50;90.24;99032.08;209393;1284;141101;-67
2023/01/08 20:14:51;;;;;;;45.00;22.40;;;;;;;3.55;90.30;99028.46;208081;1285;151505;-67
2023/01/08 20:19:58;;;;;;;40.20;22.30;;;;;;;3.56;90.25;99023.18;210555;1301;140951;-67
2023/01/08 20:25:03;;;;;;;36.60;22.50;;;;;;;3.61;90.32;99018.55;210548;1291;140397;-68
2023/01/08 20:30:13;;;;;;;;;;;;;;;3.65;90.00;99013.07;209071;1285;140554;-64
2023/01/08 20:35:17;;;;;;;33.00;20.40;;;;;;;3.64;90.20;99006.51;209800;1291;597772;-67
2023/01/08 20:40:21;;;;;;;34.80;22.40;;;;;;;3.65;90.36;98999.81;207916;1291;140250;-68
2023/01/08 20:45:26;;;;;;;39.70;23.40;;;;;;;3.66;90.03;98993.20;209037;1282;140955;-66
2023/01/08 20:50:31;;;;;;;45.90;26.90;;;;;;;3.68;90.12;98980.92;208041;1285;141400;-68
2023/01/08 20:55:36;;;;;;;39.80;24.40;;;;;;;3.68;90.20;98980.71;209307;1287;139717;-67
2023/01/08 21:00:39;;;;;;;41.20;24.80;;;;;;;3.67;90.21;98973.30;208737;1285;139946;-65
2023/01/08 21:05:43;;;;;;;48.70;25.60;;;;;;;3.65;90.31;98955.94;208727;1292;140328;-67
2023/01/08 21:10:58;;;;;;;43.80;26.50;;;;;;;3.67;90.18;98948.50;207464;1287;139896;-66
2023/01/08 21:16:06;;;;;;;47.10;22.80;;;;;;;3.64;90.23;98948.80;208797;1285;140762;-67
2023/01/08 21:21:11;;;;;;;41.60;24.30;;;;;;;3.66;90.49;98942.70;207983;1286;140939;-65
2023/01/08 21:26:36;;;;;;;42.50;24.30;;;;;;;3.66;90.27;98933.10;207732;1286;140413;-65
2023/01/08 21:31:40;;;;;;;38.60;26.20;;;;;;;3.65;90.16;98928.81;209109;1285;143623;-66
2023/01/08 21:36:43;;;;;;;41.20;24.50;;;;;;;3.68;90.40;98924.52;208886;1291;141506;-66
2023/01/08 21:47:12;;;;;;;46.00;25.80;;;;;;;3.70;89.89;98915.10;208195;1285;141210;-67
2023/01/08 21:57:43;;;;;;;39.50;24.80;;;;;;;3.65;90.08;98900.92;208873;1289;140640;-66
2023/01/08 22:02:45;;;;;;;44.60;25.80;;;;;;;3.68;89.96;98901.05;208483;1294;140379;-67
2023/01/08 22:07:48;;;;;;;38.20;24.30;;;;;;;3.71;90.06;98900.26;209134;1284;140734;-69
2023/01/08 22:12:51;;;;;;;39.30;23.00;;;;;;;3.71;90.09;98884.48;209617;1286;139402;-66
2023/01/08 22:17:53;;;;;;;37.30;20.10;;;;;;;3.70;89.95;98875.56;210678;1285;140876;-67
2023/01/08 22:22:56;;;;;;;46.70;23.30;;;;;;;3.70;89.69;98871.39;209774;1286;142381;-67
2023/01/08 22:28:00;;;;;;;91.20;38.70;;;;;;;3.64;89.69;98864.75;210702;1292;140596;-67
2023/01/08 22:33:05;;;;;;;97.10;40.00;;;;;;;3.59;89.53;98861.73;207762;1278;140475;-66
2023/01/08 22:38:11;;;;;;;93.70;40.90;;;;;;;3.51;89.53;98853.87;208737;1285;142177;-65
2023/01/08 22:43:14;;;;;;;53.60;28.30;;;;;;;3.43;89.51;98846.73;208923;1294;140384;-65
2023/01/08 22:48:18;;;;;;;40.10;24.70;;;;;;;3.38;89.77;98849.34;208162;1285;141307;-65
2023/01/08 22:53:21;;;;;;;48.80;27.60;;;;;;;3.36;89.88;98848.56;208195;1286;141735;-63
2023/01/08 22:58:23;;;;;;;43.20;27.10;;;;;;;3.36;89.92;98854.66;207878;1286;141420;-63
2023/01/08 23:03:25;;;;;;;46.60;30.10;;;;;;;3.35;89.75;98853.79;209020;1286;140338;-66
2023/01/08 23:08:30;;;;;;;51.10;30.20;;;;;;;3.27;89.61;98842.23;208530;1285;140252;-64
2023/01/08 23:13:34;;;;;;;44.50;27.50;;;;;;;3.14;89.45;98828.98;207897;1292;139977;-63
2023/01/08 23:18:37;;;;;;;46.80;25.60;;;;;;;2.99;89.17;98822.37;207505;1278;141912;-68
2023/01/08 23:23:41;;;;;;;51.20;29.20;;;;;;;2.90;89.26;98812.60;208607;1294;140612;-62
2023/01/08 23:28:47;;;;;;;48.00;25.90;;;;;;;2.85;89.46;98805.85;208698;1291;140974;-67
2023/01/08 23:33:51;;;;;;;57.30;29.20;;;;;;;2.75;89.56;98791.27;208559;1292;139448;-66
2023/01/08 23:38:55;;;;;;;62.70;32.70;;;;;;;2.68;89.51;98798.34;209045;1292;220123;-64